Extreme low temperature From: 25-02-2018 16:00 Until: 26-02-2018 16:00 warning for: Extreme low temperature Level: Yellow info button

Although rather usual in this region, locally or potentially dangerous phenomena are expected. (such as local winds, summer thunderstorms, rising streams or high waves) Be aware and pay attention to the latest weather updates, especially if you carry out activities exposed to weather or close to a stream or shoreline. 


Meteo18 Weather Cam more information Meteo18 Weather Cam


Thunder radar more information blitzortung!


Rain radar more information rain snow radar


Visit our other weather sites:

Template documentation
and downloads

And another site



Weather Underground History page Text

Daily Summary for December 16, 2017 Units:  Both    English   Metric
« Previous Day
Next Day »
Daily Weekly Monthly Yearly Custom
  High: Low: Average:
Temperature: TemperatureC °F /  -17.8 °C 1.4 °F /  -17 °C 3.3 °F /  -15.9 °C
Dew Point: DewpointC °F /  -17.8 °C 0.1 °F /  -17.7 °C 1.7 °F /  -16.8 °C
Humidity: Humidity % 79 % 89 %
Wind Speed: WindSpeedKMH mph /  0 km/h - 7.1 mph /  11.4 km/h
Wind Gust: WindSpeedGustKMH mph /  0 km/h - -
Wind:- - WNW
Pressure: PressurehPa in /  0 hPa 1007.0 in /  34097 hPa -
Precipitation: 2.3 in /  58.42 mm    
Historical Graphs
 
 
Tabular Data for December 16, 2017
Time Temperature Dew Point Pressure Wind Wind Speed Wind Gust Humidity Rainfall Rate (Hourly)
TemperatureC °F /  -17.8 °C DewpointC °F /  -17.8 °C PressurehPa in /  0 hPa Calm     Humidity % HourlyPrecipMM in /  0 mm
00:02 3.1 °F /  -16.1 °C 1.9 °F /  -16.7 °C 1007.0 in /  34097 hPa Calm   22.5 mph /  36.2 km/h 92 % 0.5 in /  12.7 mm
00:07 3.1 °F /  -16.1 °C 1.9 °F /  -16.7 °C 1007.0 in /  34097 hPa WNW 8.0 mph /  12.9 km/h 22.5 mph /  36.2 km/h 92 % 0.5 in /  12.7 mm
00:12 3.2 °F /  -16 °C 2.0 °F /  -16.7 °C 1007.0 in /  34097 hPa NW 4.8 mph /  7.7 km/h 16.1 mph /  25.9 km/h 92 % 0.5 in /  12.7 mm
00:17 3.2 °F /  -16 °C 2.2 °F /  -16.6 °C 1007.0 in /  34097 hPa WNW 9.7 mph /  15.6 km/h 16.1 mph /  25.9 km/h 93 % 0.5 in /  12.7 mm
00:22 3.3 °F /  -15.9 °C 2.1 °F /  -16.6 °C 1007.0 in /  34097 hPa WNW 6.4 mph /  10.3 km/h 16.1 mph /  25.9 km/h 92 % 0.5 in /  12.7 mm
00:32 3.3 °F /  -15.9 °C 2.1 °F /  -16.6 °C 1007.0 in /  34097 hPa WNW 12.9 mph /  20.8 km/h 25.7 mph /  41.4 km/h 92 % 0.5 in /  12.7 mm
00:42 3.2 °F /  -16 °C 2.0 °F /  -16.7 °C 1007.0 in /  34097 hPa NNW 6.4 mph /  10.3 km/h 17.7 mph /  28.5 km/h 92 % 0.5 in /  12.7 mm
00:47 3.2 °F /  -16 °C 2.0 °F /  -16.7 °C 1007.0 in /  34097 hPa WNW 12.9 mph /  20.8 km/h 17.7 mph /  28.5 km/h 92 % 0.5 in /  12.7 mm
00:57 3.3 °F /  -15.9 °C 2.1 °F /  -16.6 °C 1007.3 in /  34107.2 hPa West 6.4 mph /  10.3 km/h 29.0 mph /  46.7 km/h 92 % 0.3 in /  7.62 mm
01:02 3.3 °F /  -15.9 °C 2.1 °F /  -16.6 °C 1007.3 in /  34107.2 hPa NW 12.9 mph /  20.8 km/h 29.0 mph /  46.7 km/h 92 % 0.3 in /  7.62 mm
01:07 3.3 °F /  -15.9 °C 2.1 °F /  -16.6 °C 1007.3 in /  34107.2 hPa NW 9.7 mph /  15.6 km/h 29.0 mph /  46.7 km/h 92 % 0.5 in /  12.7 mm
01:12 3.2 °F /  -16 °C 2.0 °F /  -16.7 °C 1007.3 in /  34107.2 hPa WNW 6.4 mph /  10.3 km/h 29.0 mph /  46.7 km/h 92 % 0.8 in /  20.32 mm
01:17 3.2 °F /  -16 °C 2.2 °F /  -16.6 °C 1007.3 in /  34107.2 hPa WNW 12.9 mph /  20.8 km/h 29.0 mph /  46.7 km/h 93 % 0.8 in /  20.32 mm
01:22 3.3 °F /  -15.9 °C 2.3 °F /  -16.5 °C 1007.7 in /  34120.7 hPa West 9.7 mph /  15.6 km/h 25.7 mph /  41.4 km/h 93 % 0.8 in /  20.32 mm
01:27 3.3 °F /  -15.9 °C 2.3 °F /  -16.5 °C 1007.7 in /  34120.7 hPa WNW 12.9 mph /  20.8 km/h 25.7 mph /  41.4 km/h 93 % 1.0 in /  25.4 mm
01:32 3.3 °F /  -15.9 °C 2.3 °F /  -16.5 °C 1007.7 in /  34120.7 hPa WNW 11.3 mph /  18.2 km/h 25.7 mph /  41.4 km/h 93 % 1.0 in /  25.4 mm
01:42 3.1 °F /  -16.1 °C 1.9 °F /  -16.7 °C 1007.7 in /  34120.7 hPa NW 4.8 mph /  7.7 km/h 38.6 mph /  62.1 km/h 92 % 1.0 in /  25.4 mm
01:47 3.1 °F /  -16.1 °C 2.1 °F /  -16.6 °C 1008.0 in /  34130.9 hPa NW 8.0 mph /  12.9 km/h 38.6 mph /  62.1 km/h 93 % 1.0 in /  25.4 mm
01:52 3.2 °F /  -16 °C 2.2 °F /  -16.6 °C 1008.0 in /  34130.9 hPa WNW 19.3 mph /  31.1 km/h 29.0 mph /  46.7 km/h 93 % 1.0 in /  25.4 mm
02:02 3.2 °F /  -16 °C 2.2 °F /  -16.6 °C 1008.0 in /  34130.9 hPa NNW 3.2 mph /  5.1 km/h 29.0 mph /  46.7 km/h 93 % 1.0 in /  25.4 mm
02:12 3.3 °F /  -15.9 °C 2.3 °F /  -16.5 °C 1008.4 in /  34144.4 hPa WNW 4.8 mph /  7.7 km/h 25.7 mph /  41.4 km/h 93 % 0.5 in /  12.7 mm
02:22 3.3 °F /  -15.9 °C 2.3 °F /  -16.5 °C 1008.4 in /  34144.4 hPa WSW 4.8 mph /  7.7 km/h 22.5 mph /  36.2 km/h 93 % 0.8 in /  20.32 mm
02:27 3.3 °F /  -15.9 °C 2.3 °F /  -16.5 °C 1008.7 in /  34154.6 hPa WNW 11.3 mph /  18.2 km/h 22.5 mph /  36.2 km/h 93 % 0.5 in /  12.7 mm
02:32 3.4 °F /  -15.9 °C 2.4 °F /  -16.4 °C 1008.7 in /  34154.6 hPa WNW 16.1 mph /  25.9 km/h 22.5 mph /  36.2 km/h 93 % 0.5 in /  12.7 mm
02:37 3.4 °F /  -15.9 °C 2.4 °F /  -16.4 °C 1008.7 in /  34154.6 hPa NNW 3.2 mph /  5.1 km/h 17.7 mph /  28.5 km/h 93 % 0.5 in /  12.7 mm
02:42 3.4 °F /  -15.9 °C 2.4 °F /  -16.4 °C 1008.7 in /  34154.6 hPa NNW 9.7 mph /  15.6 km/h 17.7 mph /  28.5 km/h 93 % 0.5 in /  12.7 mm
02:47 3.5 °F /  -15.8 °C 2.5 °F /  -16.4 °C 1008.7 in /  34154.6 hPa WNW 9.7 mph /  15.6 km/h 19.3 mph /  31.1 km/h 93 % 0.5 in /  12.7 mm
02:52 3.5 °F /  -15.8 °C 2.5 °F /  -16.4 °C 1009.0 in /  34164.7 hPa NW 12.9 mph /  20.8 km/h 24.1 mph /  38.8 km/h 93 % 0.5 in /  12.7 mm
02:57 3.5 °F /  -15.8 °C 2.5 °F /  -16.4 °C 1009.0 in /  34164.7 hPa NNW 6.4 mph /  10.3 km/h 24.1 mph /  38.8 km/h 93 % 0.3 in /  7.62 mm
03:02 3.5 °F /  -15.8 °C 2.5 °F /  -16.4 °C 1009.0 in /  34164.7 hPa West 9.7 mph /  15.6 km/h 24.1 mph /  38.8 km/h 93 % 0.5 in /  12.7 mm
03:07 3.5 °F /  -15.8 °C 2.5 °F /  -16.4 °C 1009.0 in /  34164.7 hPa NNW 9.7 mph /  15.6 km/h 24.1 mph /  38.8 km/h 93 % 0.5 in /  12.7 mm
03:12 3.5 °F /  -15.8 °C 2.5 °F /  -16.4 °C 1009.4 in /  34178.3 hPa NW 17.7 mph /  28.5 km/h 24.1 mph /  38.8 km/h 93 % 0.5 in /  12.7 mm
03:17 3.6 °F /  -15.8 °C 2.4 °F /  -16.4 °C 1009.4 in /  34178.3 hPa WNW 9.7 mph /  15.6 km/h 24.1 mph /  38.8 km/h 92 % 0.5 in /  12.7 mm
03:22 3.5 °F /  -15.8 °C 2.3 °F /  -16.5 °C 1009.4 in /  34178.3 hPa NW 12.9 mph /  20.8 km/h 22.5 mph /  36.2 km/h 92 % 0.3 in /  7.62 mm
03:27 3.5 °F /  -15.8 °C 2.3 °F /  -16.5 °C 1009.4 in /  34178.3 hPa NW 12.9 mph /  20.8 km/h 22.5 mph /  36.2 km/h 92 % 0.3 in /  7.62 mm
03:32 3.5 °F /  -15.8 °C 2.3 °F /  -16.5 °C 1009.7 in /  34188.4 hPa WNW 9.7 mph /  15.6 km/h 22.5 mph /  36.2 km/h 92 % 0.3 in /  7.62 mm
03:37 3.6 °F /  -15.8 °C 2.4 °F /  -16.4 °C 1009.7 in /  34188.4 hPa NNW 6.4 mph /  10.3 km/h 17.7 mph /  28.5 km/h 92 % 0.3 in /  7.62 mm
03:42 3.6 °F /  -15.8 °C 2.4 °F /  -16.4 °C 1009.7 in /  34188.4 hPa NW 12.9 mph /  20.8 km/h 22.5 mph /  36.2 km/h 92 % 0.3 in /  7.62 mm
03:47 3.7 °F /  -15.7 °C 2.5 °F /  -16.4 °C 1010.0 in /  34198.6 hPa NW 3.2 mph /  5.1 km/h 22.5 mph /  36.2 km/h 92 % 0.3 in /  7.62 mm
03:52 3.7 °F /  -15.7 °C 2.5 °F /  -16.4 °C 1009.7 in /  34188.4 hPa NNW 6.4 mph /  10.3 km/h 22.5 mph /  36.2 km/h 92 % 0.3 in /  7.62 mm
03:57 3.7 °F /  -15.7 °C 2.4 °F /  -16.4 °C 1010.0 in /  34198.6 hPa NNW 16.1 mph /  25.9 km/h 27.4 mph /  44.1 km/h 91 % 0.3 in /  7.62 mm
04:02 3.8 °F /  -15.7 °C 2.5 °F /  -16.4 °C 1010.0 in /  34198.6 hPa North 9.7 mph /  15.6 km/h 27.4 mph /  44.1 km/h 91 % 0.0 in /  0 mm
04:17 3.8 °F /  -15.7 °C 2.3 °F /  -16.5 °C 1010.0 in /  34198.6 hPa WNW 3.2 mph /  5.1 km/h 20.9 mph /  33.6 km/h 90 % 0.0 in /  0 mm
04:22 3.7 °F /  -15.7 °C 2.2 °F /  -16.6 °C 1010.4 in /  34212.1 hPa NW 6.4 mph /  10.3 km/h 20.9 mph /  33.6 km/h 90 % 0.0 in /  0 mm
04:27 3.6 °F /  -15.8 °C 2.1 °F /  -16.6 °C 1010.4 in /  34212.1 hPa WNW 6.4 mph /  10.3 km/h 20.9 mph /  33.6 km/h 90 % 0.0 in /  0 mm
04:32 3.6 °F /  -15.8 °C 2.3 °F /  -16.5 °C 1010.7 in /  34222.3 hPa WNW 4.8 mph /  7.7 km/h 20.9 mph /  33.6 km/h 91 % 0.0 in /  0 mm
04:37 3.6 °F /  -15.8 °C 2.3 °F /  -16.5 °C 1010.7 in /  34222.3 hPa NNW 16.1 mph /  25.9 km/h 16.1 mph /  25.9 km/h 91 % 0.0 in /  0 mm
04:42 3.7 °F /  -15.7 °C 2.4 °F /  -16.4 °C 1010.7 in /  34222.3 hPa WNW 14.5 mph /  23.3 km/h 24.1 mph /  38.8 km/h 91 % 0.0 in /  0 mm
04:47 3.8 °F /  -15.7 °C 2.5 °F /  -16.4 °C 1010.7 in /  34222.3 hPa WNW 9.7 mph /  15.6 km/h 24.1 mph /  38.8 km/h 91 % 0.0 in /  0 mm
04:52 3.8 °F /  -15.7 °C 2.5 °F /  -16.4 °C 1011.1 in /  34235.8 hPa West 6.4 mph /  10.3 km/h 24.1 mph /  38.8 km/h 91 % 0.0 in /  0 mm
04:57 3.8 °F /  -15.7 °C 2.5 °F /  -16.4 °C 1011.1 in /  34235.8 hPa WNW 11.3 mph /  18.2 km/h 22.5 mph /  36.2 km/h 91 % 0.0 in /  0 mm
05:02 3.8 °F /  -15.7 °C 2.5 °F /  -16.4 °C 1011.1 in /  34235.8 hPa WNW 9.7 mph /  15.6 km/h 22.5 mph /  36.2 km/h 91 % 0.0 in /  0 mm
05:12 3.7 °F /  -15.7 °C 2.4 °F /  -16.4 °C 1011.4 in /  34246 hPa NW 12.9 mph /  20.8 km/h 20.9 mph /  33.6 km/h 91 % 0.0 in /  0 mm
05:17 3.6 °F /  -15.8 °C 2.3 °F /  -16.5 °C 1011.4 in /  34246 hPa NW 4.8 mph /  7.7 km/h 22.5 mph /  36.2 km/h 91 % 0.0 in /  0 mm
05:22 3.6 °F /  -15.8 °C 2.4 °F /  -16.4 °C 1011.4 in /  34246 hPa NW 8.0 mph /  12.9 km/h 22.5 mph /  36.2 km/h 92 % 0.0 in /  0 mm
05:27 3.6 °F /  -15.8 °C 2.4 °F /  -16.4 °C 1011.7 in /  34256.2 hPa West 12.9 mph /  20.8 km/h 22.5 mph /  36.2 km/h 92 % 0.0 in /  0 mm
05:32 3.6 °F /  -15.8 °C 2.4 °F /  -16.4 °C 1011.7 in /  34256.2 hPa NW 9.7 mph /  15.6 km/h 22.5 mph /  36.2 km/h 92 % 0.0 in /  0 mm
05:37 3.6 °F /  -15.8 °C 2.4 °F /  -16.4 °C 1011.7 in /  34256.2 hPa NNW 6.4 mph /  10.3 km/h 19.3 mph /  31.1 km/h 92 % 0.0 in /  0 mm
05:42 3.6 °F /  -15.8 °C 2.4 °F /  -16.4 °C 1011.7 in /  34256.2 hPa NW 6.4 mph /  10.3 km/h 19.3 mph /  31.1 km/h 92 % 0.0 in /  0 mm
05:52 3.6 °F /  -15.8 °C 2.4 °F /  -16.4 °C 1011.7 in /  34256.2 hPa NNW 6.4 mph /  10.3 km/h 20.9 mph /  33.6 km/h 92 % 0.0 in /  0 mm
05:57 3.6 °F /  -15.8 °C 2.4 °F /  -16.4 °C 1012.1 in /  34269.7 hPa WNW 9.7 mph /  15.6 km/h 20.9 mph /  33.6 km/h 92 % 0.0 in /  0 mm
06:02 3.5 °F /  -15.8 °C 2.3 °F /  -16.5 °C 1012.1 in /  34269.7 hPa NNW 11.3 mph /  18.2 km/h 20.9 mph /  33.6 km/h 92 % 0.0 in /  0 mm
06:07 3.5 °F /  -15.8 °C 2.5 °F /  -16.4 °C 1012.1 in /  34269.7 hPa NNW 9.7 mph /  15.6 km/h 17.7 mph /  28.5 km/h 93 % 0.3 in /  7.62 mm
06:17 3.5 °F /  -15.8 °C 2.5 °F /  -16.4 °C 1012.1 in /  34269.7 hPa WNW 11.3 mph /  18.2 km/h 22.5 mph /  36.2 km/h 93 % 0.3 in /  7.62 mm
06:22 3.5 °F /  -15.8 °C 2.3 °F /  -16.5 °C 1012.1 in /  34269.7 hPa NNW 6.4 mph /  10.3 km/h 22.5 mph /  36.2 km/h 92 % 0.3 in /  7.62 mm
06:32 3.4 °F /  -15.9 °C 2.2 °F /  -16.6 °C 1012.4 in /  34279.9 hPa WNW 14.5 mph /  23.3 km/h 22.5 mph /  36.2 km/h 92 % 0.3 in /  7.62 mm
06:37 3.4 °F /  -15.9 °C 2.2 °F /  -16.6 °C 1012.8 in /  34293.4 hPa WNW 12.9 mph /  20.8 km/h 22.5 mph /  36.2 km/h 92 % 0.3 in /  7.62 mm
06:42 3.4 °F /  -15.9 °C 2.2 °F /  -16.6 °C 1012.8 in /  34293.4 hPa NW 14.5 mph /  23.3 km/h 22.5 mph /  36.2 km/h 92 % 0.3 in /  7.62 mm
06:52 3.4 °F /  -15.9 °C 2.2 °F /  -16.6 °C 1012.8 in /  34293.4 hPa WNW 11.3 mph /  18.2 km/h 19.3 mph /  31.1 km/h 92 % 0.3 in /  7.62 mm
07:02 3.4 °F /  -15.9 °C 2.2 °F /  -16.6 °C 1012.8 in /  34293.4 hPa WNW 19.3 mph /  31.1 km/h 19.3 mph /  31.1 km/h 92 % 0.3 in /  7.62 mm
07:12 3.6 °F /  -15.8 °C 2.3 °F /  -16.5 °C 1013.1 in /  34303.6 hPa NW 6.4 mph /  10.3 km/h 25.7 mph /  41.4 km/h 91 % 0.0 in /  0 mm
07:17 3.6 °F /  -15.8 °C 2.3 °F /  -16.5 °C 1013.1 in /  34303.6 hPa NNW 14.5 mph /  23.3 km/h 25.7 mph /  41.4 km/h 91 % 0.0 in /  0 mm
07:22 3.6 °F /  -15.8 °C 2.3 °F /  -16.5 °C 1013.1 in /  34303.6 hPa WSW 3.2 mph /  5.1 km/h 20.9 mph /  33.6 km/h 91 % 0.0 in /  0 mm
07:27 3.6 °F /  -15.8 °C 2.3 °F /  -16.5 °C 1013.1 in /  34303.6 hPa West 11.3 mph /  18.2 km/h 20.9 mph /  33.6 km/h 91 % 0.0 in /  0 mm
07:32 3.5 °F /  -15.8 °C 2.2 °F /  -16.6 °C 1013.1 in /  34303.6 hPa NW 16.1 mph /  25.9 km/h 20.9 mph /  33.6 km/h 91 % 0.0 in /  0 mm
07:37 3.5 °F /  -15.8 °C 2.2 °F /  -16.6 °C 1013.4 in /  34313.7 hPa WNW 9.7 mph /  15.6 km/h 19.3 mph /  31.1 km/h 91 % 0.0 in /  0 mm
07:42 3.5 °F /  -15.8 °C 2.2 °F /  -16.6 °C 1013.4 in /  34313.7 hPa WNW 12.9 mph /  20.8 km/h 19.3 mph /  31.1 km/h 91 % 0.0 in /  0 mm
07:47 3.5 °F /  -15.8 °C 2.2 °F /  -16.6 °C 1013.8 in /  34327.3 hPa NNW 6.4 mph /  10.3 km/h 20.9 mph /  33.6 km/h 91 % 0.0 in /  0 mm
07:52 3.6 °F /  -15.8 °C 2.3 °F /  -16.5 °C 1013.8 in /  34327.3 hPa NW 6.4 mph /  10.3 km/h 20.9 mph /  33.6 km/h 91 % 0.0 in /  0 mm
07:57 3.6 °F /  -15.8 °C 2.3 °F /  -16.5 °C 1013.8 in /  34327.3 hPa NW 8.0 mph /  12.9 km/h 24.1 mph /  38.8 km/h 91 % 0.0 in /  0 mm
08:02 3.6 °F /  -15.8 °C 2.3 °F /  -16.5 °C 1013.8 in /  34327.3 hPa WNW 6.4 mph /  10.3 km/h 24.1 mph /  38.8 km/h 91 % 0.0 in /  0 mm
08:07 3.6 °F /  -15.8 °C 2.3 °F /  -16.5 °C 1013.8 in /  34327.3 hPa WNW 6.4 mph /  10.3 km/h 20.9 mph /  33.6 km/h 91 % 0.0 in /  0 mm
08:12 3.6 °F /  -15.8 °C 2.3 °F /  -16.5 °C 1013.8 in /  34327.3 hPa NW 9.7 mph /  15.6 km/h 20.9 mph /  33.6 km/h 91 % 0.0 in /  0 mm
08:17 3.6 °F /  -15.8 °C 2.3 °F /  -16.5 °C 1013.8 in /  34327.3 hPa NW 9.7 mph /  15.6 km/h 22.5 mph /  36.2 km/h 91 % 0.0 in /  0 mm
08:27 3.6 °F /  -15.8 °C 2.3 °F /  -16.5 °C 1014.1 in /  34337.4 hPa WNW 11.3 mph /  18.2 km/h 22.5 mph /  36.2 km/h 91 % 0.0 in /  0 mm
08:32 3.5 °F /  -15.8 °C 2.2 °F /  -16.6 °C 1014.1 in /  34337.4 hPa NW 8.0 mph /  12.9 km/h 22.5 mph /  36.2 km/h 91 % 0.0 in /  0 mm
08:42 3.5 °F /  -15.8 °C 2.2 °F /  -16.6 °C 1014.4 in /  34347.6 hPa NW 4.8 mph /  7.7 km/h 17.7 mph /  28.5 km/h 91 % 0.0 in /  0 mm
08:47 3.5 °F /  -15.8 °C 2.2 °F /  -16.6 °C 1014.4 in /  34347.6 hPa WNW 3.2 mph /  5.1 km/h 19.3 mph /  31.1 km/h 91 % 0.0 in /  0 mm
08:52 3.5 °F /  -15.8 °C 2.3 °F /  -16.5 °C 1014.8 in /  34361.1 hPa WNW 11.3 mph /  18.2 km/h 19.3 mph /  31.1 km/h 92 % 0.0 in /  0 mm
09:02 3.4 °F /  -15.9 °C 2.2 °F /  -16.6 °C 1015.1 in /  34371.3 hPa WNW 6.4 mph /  10.3 km/h 19.3 mph /  31.1 km/h 92 % 0.0 in /  0 mm
09:12 3.4 °F /  -15.9 °C 2.2 °F /  -16.6 °C 1015.1 in /  34371.3 hPa NNW 4.8 mph /  7.7 km/h 20.9 mph /  33.6 km/h 92 % 0.0 in /  0 mm
09:17 3.4 °F /  -15.9 °C 2.2 °F /  -16.6 °C 1015.1 in /  34371.3 hPa WNW 11.3 mph /  18.2 km/h 19.3 mph /  31.1 km/h 92 % 0.0 in /  0 mm
09:22 3.4 °F /  -15.9 °C 2.2 °F /  -16.6 °C 1015.5 in /  34384.8 hPa WNW 11.3 mph /  18.2 km/h 19.3 mph /  31.1 km/h 92 % 0.0 in /  0 mm
09:32 3.5 °F /  -15.8 °C 2.3 °F /  -16.5 °C 1015.5 in /  34384.8 hPa WNW 6.4 mph /  10.3 km/h 17.7 mph /  28.5 km/h 92 % 0.0 in /  0 mm
09:42 3.5 °F /  -15.8 °C 2.2 °F /  -16.6 °C 1015.8 in /  34395 hPa NW 8.0 mph /  12.9 km/h 17.7 mph /  28.5 km/h 91 % 0.0 in /  0 mm
09:52 3.5 °F /  -15.8 °C 2.2 °F /  -16.6 °C 1016.1 in /  34405.1 hPa NNW 4.8 mph /  7.7 km/h 25.7 mph /  41.4 km/h 91 % 0.0 in /  0 mm
09:57 3.5 °F /  -15.8 °C 2.2 °F /  -16.6 °C 1016.1 in /  34405.1 hPa WNW 9.7 mph /  15.6 km/h 24.1 mph /  38.8 km/h 91 % 0.0 in /  0 mm
10:02 3.5 °F /  -15.8 °C 2.2 °F /  -16.6 °C 1016.1 in /  34405.1 hPa WNW 8.0 mph /  12.9 km/h 24.1 mph /  38.8 km/h 91 % 0.0 in /  0 mm
10:07 3.5 °F /  -15.8 °C 2.2 °F /  -16.6 °C 1016.1 in /  34405.1 hPa North 4.8 mph /  7.7 km/h 19.3 mph /  31.1 km/h 91 % 0.0 in /  0 mm
10:12 3.5 °F /  -15.8 °C 2.2 °F /  -16.6 °C 1016.5 in /  34418.7 hPa WNW 6.4 mph /  10.3 km/h 19.3 mph /  31.1 km/h 91 % 0.0 in /  0 mm
10:22 3.6 °F /  -15.8 °C 2.3 °F /  -16.5 °C 1016.5 in /  34418.7 hPa West 4.8 mph /  7.7 km/h 17.7 mph /  28.5 km/h 91 % 0.0 in /  0 mm
10:27 3.6 °F /  -15.8 °C 2.3 °F /  -16.5 °C 1016.8 in /  34428.8 hPa WNW 8.0 mph /  12.9 km/h 20.9 mph /  33.6 km/h 91 % 0.0 in /  0 mm
10:32 3.7 °F /  -15.7 °C 2.4 °F /  -16.4 °C 1016.8 in /  34428.8 hPa NW 4.8 mph /  7.7 km/h 20.9 mph /  33.6 km/h 91 % 0.0 in /  0 mm
10:42 3.7 °F /  -15.7 °C 2.2 °F /  -16.6 °C 1017.2 in /  34442.4 hPa West 3.2 mph /  5.1 km/h 19.3 mph /  31.1 km/h 90 % 0.0 in /  0 mm
10:52 3.8 °F /  -15.7 °C 2.3 °F /  -16.5 °C 1017.2 in /  34442.4 hPa NW 9.7 mph /  15.6 km/h 17.7 mph /  28.5 km/h 90 % 0.0 in /  0 mm
11:02 3.9 °F /  -15.6 °C 2.4 °F /  -16.4 °C 1017.5 in /  34452.6 hPa NW 9.7 mph /  15.6 km/h 19.3 mph /  31.1 km/h 90 % 0.0 in /  0 mm
11:07 4.1 °F /  -15.5 °C 2.6 °F /  -16.3 °C 1017.5 in /  34452.6 hPa NW 8.0 mph /  12.9 km/h 16.1 mph /  25.9 km/h 90 % 0.0 in /  0 mm
11:12 4.0 °F /  -15.6 °C 2.4 °F /  -16.4 °C 1017.8 in /  34462.7 hPa NW 9.7 mph /  15.6 km/h 16.1 mph /  25.9 km/h 89 % 0.0 in /  0 mm
11:17 4.0 °F /  -15.6 °C 2.4 °F /  -16.4 °C 1017.8 in /  34462.7 hPa NW 9.7 mph /  15.6 km/h 16.1 mph /  25.9 km/h 89 % 0.0 in /  0 mm
11:27 3.8 °F /  -15.7 °C 2.2 °F /  -16.6 °C 1017.8 in /  34462.7 hPa WNW 6.4 mph /  10.3 km/h 20.9 mph /  33.6 km/h 89 % 0.0 in /  0 mm
11:32 3.8 °F /  -15.7 °C 2.2 °F /  -16.6 °C 1017.8 in /  34462.7 hPa NW 11.3 mph /  18.2 km/h 20.9 mph /  33.6 km/h 89 % 0.0 in /  0 mm
11:42 3.8 °F /  -15.7 °C 2.2 °F /  -16.6 °C 1017.8 in /  34462.7 hPa NNW 11.3 mph /  18.2 km/h 20.9 mph /  33.6 km/h 89 % 0.0 in /  0 mm
11:52 3.9 °F /  -15.6 °C 2.3 °F /  -16.5 °C 1017.8 in /  34462.7 hPa NNW 9.7 mph /  15.6 km/h 24.1 mph /  38.8 km/h 89 % 0.0 in /  0 mm
12:02 4.1 °F /  -15.5 °C 2.3 °F /  -16.5 °C 1018.2 in /  34476.3 hPa NNW 9.7 mph /  15.6 km/h 24.1 mph /  38.8 km/h 88 % 0.0 in /  0 mm
12:12 4.2 °F /  -15.4 °C 2.2 °F /  -16.6 °C 1018.2 in /  34476.3 hPa NW 9.7 mph /  15.6 km/h 17.7 mph /  28.5 km/h 87 % 0.0 in /  0 mm
12:17 4.2 °F /  -15.4 °C 2.4 °F /  -16.4 °C 1018.2 in /  34476.3 hPa NNW 3.2 mph /  5.1 km/h 20.9 mph /  33.6 km/h 88 % 0.0 in /  0 mm
12:22 4.3 °F /  -15.4 °C 2.5 °F /  -16.4 °C 1018.2 in /  34476.3 hPa WNW 9.7 mph /  15.6 km/h 20.9 mph /  33.6 km/h 88 % 0.0 in /  0 mm
12:27 4.3 °F /  -15.4 °C 2.3 °F /  -16.5 °C 1018.2 in /  34476.3 hPa NNW 11.3 mph /  18.2 km/h 20.9 mph /  33.6 km/h 87 % 0.0 in /  0 mm
12:32 4.5 °F /  -15.3 °C 2.5 °F /  -16.4 °C 1018.2 in /  34476.3 hPa NNW 3.2 mph /  5.1 km/h 20.9 mph /  33.6 km/h 87 % 0.0 in /  0 mm
12:37 4.6 °F /  -15.2 °C 2.6 °F /  -16.3 °C 1018.2 in /  34476.3 hPa North 9.7 mph /  15.6 km/h 17.7 mph /  28.5 km/h 87 % 0.0 in /  0 mm
12:42 4.7 °F /  -15.2 °C 2.7 °F /  -16.3 °C 1018.5 in /  34486.4 hPa NNW 6.4 mph /  10.3 km/h 17.7 mph /  28.5 km/h 87 % 0.0 in /  0 mm
12:47 4.6 °F /  -15.2 °C 2.5 °F /  -16.4 °C 1018.5 in /  34486.4 hPa NW 3.2 mph /  5.1 km/h 17.7 mph /  28.5 km/h 86 % 0.0 in /  0 mm
12:52 4.6 °F /  -15.2 °C 2.6 °F /  -16.3 °C 1018.5 in /  34486.4 hPa NNW 4.8 mph /  7.7 km/h 17.7 mph /  28.5 km/h 87 % 0.0 in /  0 mm
13:02 4.5 °F /  -15.3 °C 2.4 °F /  -16.4 °C 1018.5 in /  34486.4 hPa North 3.2 mph /  5.1 km/h 12.9 mph /  20.8 km/h 86 % 0.0 in /  0 mm
13:12 4.4 °F /  -15.3 °C 2.1 °F /  -16.6 °C 1018.5 in /  34486.4 hPa NNW 4.8 mph /  7.7 km/h 17.7 mph /  28.5 km/h 85 % 0.0 in /  0 mm
13:17 4.4 °F /  -15.3 °C 2.1 °F /  -16.6 °C 1018.5 in /  34486.4 hPa North 4.8 mph /  7.7 km/h 20.9 mph /  33.6 km/h 85 % 0.0 in /  0 mm
13:22 4.4 °F /  -15.3 °C 2.1 °F /  -16.6 °C 1018.5 in /  34486.4 hPa NNW 8.0 mph /  12.9 km/h 20.9 mph /  33.6 km/h 85 % 0.0 in /  0 mm
13:32 4.4 °F /  -15.3 °C 2.1 °F /  -16.6 °C 1018.8 in /  34496.6 hPa North 1.6 mph /  2.6 km/h 17.7 mph /  28.5 km/h 85 % 0.0 in /  0 mm
13:37 4.4 °F /  -15.3 °C 2.1 °F /  -16.6 °C 1018.8 in /  34496.6 hPa NNE 8.0 mph /  12.9 km/h 17.7 mph /  28.5 km/h 85 % 0.0 in /  0 mm
13:42 4.4 °F /  -15.3 °C 2.1 °F /  -16.6 °C 1018.8 in /  34496.6 hPa NNW 6.4 mph /  10.3 km/h 17.7 mph /  28.5 km/h 85 % 0.0 in /  0 mm
13:52 4.4 °F /  -15.3 °C 2.1 °F /  -16.6 °C 1018.8 in /  34496.6 hPa North 4.8 mph /  7.7 km/h 9.7 mph /  15.6 km/h 85 % 0.0 in /  0 mm
13:57 4.4 °F /  -15.3 °C 2.1 °F /  -16.6 °C 1018.8 in /  34496.6 hPa NW 4.8 mph /  7.7 km/h 11.3 mph /  18.2 km/h 85 % 0.0 in /  0 mm
14:02 4.4 °F /  -15.3 °C 2.3 °F /  -16.5 °C 1018.8 in /  34496.6 hPa NW 3.2 mph /  5.1 km/h 11.3 mph /  18.2 km/h 86 % 0.0 in /  0 mm
14:12 3.9 °F /  -15.6 °C 2.1 °F /  -16.6 °C 1018.8 in /  34496.6 hPa WNW 6.4 mph /  10.3 km/h 12.9 mph /  20.8 km/h 88 % 0.0 in /  0 mm
14:17 3.8 °F /  -15.7 °C 2.2 °F /  -16.6 °C 1018.8 in /  34496.6 hPa NW 3.2 mph /  5.1 km/h 20.9 mph /  33.6 km/h 89 % 0.3 in /  7.62 mm
14:22 3.9 °F /  -15.6 °C 2.4 °F /  -16.4 °C 1019.2 in /  34510.1 hPa NW 1.6 mph /  2.6 km/h 12.9 mph /  20.8 km/h 90 % 0.3 in /  7.62 mm
14:32 4.0 °F /  -15.6 °C 2.2 °F /  -16.6 °C 1018.8 in /  34496.6 hPa NW 4.8 mph /  7.7 km/h 12.9 mph /  20.8 km/h 88 % 0.3 in /  7.62 mm
14:42 3.8 °F /  -15.7 °C 2.0 °F /  -16.7 °C 1019.2 in /  34510.1 hPa North 4.8 mph /  7.7 km/h 16.1 mph /  25.9 km/h 88 % 0.3 in /  7.62 mm
14:47 3.9 °F /  -15.6 °C 2.3 °F /  -16.5 °C 1019.2 in /  34510.1 hPa North 1.6 mph /  2.6 km/h 16.1 mph /  25.9 km/h 89 % 0.3 in /  7.62 mm
14:52 3.9 °F /  -15.6 °C 2.3 °F /  -16.5 °C 1019.2 in /  34510.1 hPa North 1.6 mph /  2.6 km/h 8.0 mph /  12.9 km/h 89 % 0.3 in /  7.62 mm
14:57 3.9 °F /  -15.6 °C 2.3 °F /  -16.5 °C 1019.2 in /  34510.1 hPa Calm   6.4 mph /  10.3 km/h 89 % 0.3 in /  7.62 mm
15:02 4.0 °F /  -15.6 °C 2.5 °F /  -16.4 °C 1019.2 in /  34510.1 hPa NW 12.9 mph /  20.8 km/h 12.9 mph /  20.8 km/h 90 % 0.3 in /  7.62 mm
15:12 3.7 °F /  -15.7 °C 1.9 °F /  -16.7 °C 1019.5 in /  34520.3 hPa WNW 6.4 mph /  10.3 km/h 22.5 mph /  36.2 km/h 88 % 0.0 in /  0 mm
15:17 3.7 °F /  -15.7 °C 2.1 °F /  -16.6 °C 1019.5 in /  34520.3 hPa WNW 9.7 mph /  15.6 km/h 22.5 mph /  36.2 km/h 89 % 0.0 in /  0 mm
15:22 3.9 °F /  -15.6 °C 2.3 °F /  -16.5 °C 1019.5 in /  34520.3 hPa WNW 4.8 mph /  7.7 km/h 14.5 mph /  23.3 km/h 89 % 0.0 in /  0 mm
15:32 4.3 °F /  -15.4 °C 2.6 °F /  -16.3 °C 1019.5 in /  34520.3 hPa WNW 1.6 mph /  2.6 km/h 11.3 mph /  18.2 km/h 89 % 0.0 in /  0 mm
15:37 4.4 °F /  -15.3 °C 2.6 °F /  -16.3 °C 1019.9 in /  34533.8 hPa NW 3.2 mph /  5.1 km/h 11.3 mph /  18.2 km/h 88 % 0.0 in /  0 mm
15:42 4.6 °F /  -15.2 °C 2.6 °F /  -16.3 °C 1019.9 in /  34533.8 hPa WNW 8.0 mph /  12.9 km/h 11.3 mph /  18.2 km/h 87 % 0.0 in /  0 mm
15:47 4.7 °F /  -15.2 °C 2.6 °F /  -16.3 °C 1019.9 in /  34533.8 hPa WNW 8.0 mph /  12.9 km/h 11.3 mph /  18.2 km/h 86 % 0.0 in /  0 mm
15:52 4.7 °F /  -15.2 °C 2.6 °F /  -16.3 °C 1019.9 in /  34533.8 hPa WNW 6.4 mph /  10.3 km/h 11.3 mph /  18.2 km/h 86 % 0.0 in /  0 mm
15:57 4.8 °F /  -15.1 °C 2.0 °F /  -16.7 °C 1019.9 in /  34533.8 hPa WNW 8.0 mph /  12.9 km/h 16.1 mph /  25.9 km/h 82 % 0.0 in /  0 mm
16:02 4.8 °F /  -15.1 °C 1.8 °F /  -16.8 °C 1019.9 in /  34533.8 hPa NW 9.7 mph /  15.6 km/h 16.1 mph /  25.9 km/h 81 % 0.0 in /  0 mm
16:12 4.7 °F /  -15.2 °C 1.4 °F /  -17 °C 1019.9 in /  34533.8 hPa WNW 3.2 mph /  5.1 km/h 19.3 mph /  31.1 km/h 79 % 0.0 in /  0 mm
16:17 4.6 °F /  -15.2 °C 1.4 °F /  -17 °C 1020.2 in /  34544 hPa West 9.7 mph /  15.6 km/h 14.5 mph /  23.3 km/h 80 % 0.0 in /  0 mm
16:22 4.5 °F /  -15.3 °C 1.4 °F /  -17 °C 1020.2 in /  34544 hPa WNW 4.8 mph /  7.7 km/h 14.5 mph /  23.3 km/h 80 % 0.0 in /  0 mm
16:27 4.6 °F /  -15.2 °C 1.6 °F /  -16.9 °C 1020.2 in /  34544 hPa NW 3.2 mph /  5.1 km/h 14.5 mph /  23.3 km/h 81 % 0.0 in /  0 mm
16:37 4.6 °F /  -15.2 °C 1.4 °F /  -17 °C 1020.5 in /  34554.1 hPa NW 4.8 mph /  7.7 km/h 9.7 mph /  15.6 km/h 80 % 0.0 in /  0 mm
16:42 4.5 °F /  -15.3 °C 1.4 °F /  -17 °C 1020.5 in /  34554.1 hPa WNW 6.4 mph /  10.3 km/h 9.7 mph /  15.6 km/h 80 % 0.0 in /  0 mm
16:52 4.3 °F /  -15.4 °C 1.3 °F /  -17.1 °C 1020.5 in /  34554.1 hPa NW 6.4 mph /  10.3 km/h 9.7 mph /  15.6 km/h 81 % 0.0 in /  0 mm
16:57 4.2 °F /  -15.4 °C 1.2 °F /  -17.1 °C 1020.5 in /  34554.1 hPa Calm   9.7 mph /  15.6 km/h 81 % 0.0 in /  0 mm
17:02 4.0 °F /  -15.6 °C 1.2 °F /  -17.1 °C 1020.9 in /  34567.7 hPa NW 3.2 mph /  5.1 km/h 8.0 mph /  12.9 km/h 82 % 0.0 in /  0 mm
17:07 3.9 °F /  -15.6 °C 1.1 °F /  -17.2 °C 1020.9 in /  34567.7 hPa WNW 1.6 mph /  2.6 km/h 8.0 mph /  12.9 km/h 82 % 0.0 in /  0 mm
17:17 3.6 °F /  -15.8 °C 1.0 °F /  -17.2 °C 1020.9 in /  34567.7 hPa Calm   4.8 mph /  7.7 km/h 83 % 0.0 in /  0 mm
17:22 3.4 °F /  -15.9 °C 1.0 °F /  -17.2 °C 1021.2 in /  34577.8 hPa WNW 1.6 mph /  2.6 km/h 4.8 mph /  7.7 km/h 84 % 0.0 in /  0 mm
17:27 3.2 °F /  -16 °C 0.9 °F /  -17.3 °C 1021.2 in /  34577.8 hPa WNW 3.2 mph /  5.1 km/h 4.8 mph /  7.7 km/h 85 % 0.0 in /  0 mm
17:37 3.2 °F /  -16 °C 0.8 °F /  -17.3 °C 1021.2 in /  34577.8 hPa WNW 4.8 mph /  7.7 km/h 9.7 mph /  15.6 km/h 84 % 0.0 in /  0 mm
17:42 3.1 °F /  -16.1 °C 0.7 °F /  -17.4 °C 1021.2 in /  34577.8 hPa Calm   9.7 mph /  15.6 km/h 84 % 0.0 in /  0 mm
17:52 3.0 °F /  -16.1 °C 0.7 °F /  -17.4 °C 1021.6 in /  34591.4 hPa WNW 1.6 mph /  2.6 km/h 6.4 mph /  10.3 km/h 85 % 0.0 in /  0 mm
18:02 2.9 °F /  -16.2 °C 0.6 °F /  -17.4 °C 1021.6 in /  34591.4 hPa NW 4.8 mph /  7.7 km/h 6.4 mph /  10.3 km/h 85 % 0.0 in /  0 mm
18:07 2.8 °F /  -16.2 °C 0.7 °F /  -17.4 °C 1021.6 in /  34591.4 hPa WNW 3.2 mph /  5.1 km/h 8.0 mph /  12.9 km/h 86 % 0.0 in /  0 mm
18:17 2.6 °F /  -16.3 °C 0.7 °F /  -17.4 °C 1021.9 in /  34601.5 hPa NW 3.2 mph /  5.1 km/h 8.0 mph /  12.9 km/h 87 % 0.0 in /  0 mm
18:22 2.6 °F /  -16.3 °C 0.7 °F /  -17.4 °C 1021.9 in /  34601.5 hPa WNW 4.8 mph /  7.7 km/h 6.4 mph /  10.3 km/h 87 % 0.0 in /  0 mm
18:32 2.6 °F /  -16.3 °C 0.7 °F /  -17.4 °C 1021.9 in /  34601.5 hPa NW 8.0 mph /  12.9 km/h 8.0 mph /  12.9 km/h 87 % 0.0 in /  0 mm
18:37 2.6 °F /  -16.3 °C 0.7 °F /  -17.4 °C 1021.9 in /  34601.5 hPa WNW 4.8 mph /  7.7 km/h 9.7 mph /  15.6 km/h 87 % 0.0 in /  0 mm
18:42 2.6 °F /  -16.3 °C 0.7 °F /  -17.4 °C 1021.9 in /  34601.5 hPa WNW 3.2 mph /  5.1 km/h 11.3 mph /  18.2 km/h 87 % 0.0 in /  0 mm
18:47 2.5 °F /  -16.4 °C 0.6 °F /  -17.4 °C 1021.9 in /  34601.5 hPa WNW 4.8 mph /  7.7 km/h 11.3 mph /  18.2 km/h 87 % 0.0 in /  0 mm
18:52 2.4 °F /  -16.4 °C 0.6 °F /  -17.4 °C 1022.2 in /  34611.7 hPa WNW 1.6 mph /  2.6 km/h 9.7 mph /  15.6 km/h 88 % 0.0 in /  0 mm
18:57 2.4 °F /  -16.4 °C 0.6 °F /  -17.4 °C 1022.2 in /  34611.7 hPa NW 4.8 mph /  7.7 km/h 9.7 mph /  15.6 km/h 88 % 0.0 in /  0 mm
19:02 2.3 °F /  -16.5 °C 0.5 °F /  -17.5 °C 1022.2 in /  34611.7 hPa NW 4.8 mph /  7.7 km/h 9.7 mph /  15.6 km/h 88 % 0.0 in /  0 mm
19:07 2.3 °F /  -16.5 °C 0.7 °F /  -17.4 °C 1022.2 in /  34611.7 hPa NW 1.6 mph /  2.6 km/h 9.7 mph /  15.6 km/h 89 % 0.0 in /  0 mm
19:12 2.3 °F /  -16.5 °C 0.7 °F /  -17.4 °C 1022.2 in /  34611.7 hPa West 1.6 mph /  2.6 km/h 8.0 mph /  12.9 km/h 89 % 0.0 in /  0 mm
19:22 2.4 °F /  -16.4 °C 0.8 °F /  -17.3 °C 1022.6 in /  34625.2 hPa WNW 3.2 mph /  5.1 km/h 12.9 mph /  20.8 km/h 89 % 0.0 in /  0 mm
19:32 2.4 °F /  -16.4 °C 0.8 °F /  -17.3 °C 1022.6 in /  34625.2 hPa WNW 14.5 mph /  23.3 km/h 14.5 mph /  23.3 km/h 89 % 0.0 in /  0 mm
19:37 2.3 °F /  -16.5 °C 0.7 °F /  -17.4 °C 1022.6 in /  34625.2 hPa WNW 8.0 mph /  12.9 km/h 17.7 mph /  28.5 km/h 89 % 0.0 in /  0 mm
19:42 2.3 °F /  -16.5 °C 0.7 °F /  -17.4 °C 1022.6 in /  34625.2 hPa NW 9.7 mph /  15.6 km/h 17.7 mph /  28.5 km/h 89 % 0.0 in /  0 mm
19:47 2.3 °F /  -16.5 °C 0.7 °F /  -17.4 °C 1022.6 in /  34625.2 hPa NW 11.3 mph /  18.2 km/h 17.7 mph /  28.5 km/h 89 % 0.0 in /  0 mm
19:52 2.3 °F /  -16.5 °C 0.7 °F /  -17.4 °C 1022.6 in /  34625.2 hPa WNW 11.3 mph /  18.2 km/h 17.7 mph /  28.5 km/h 89 % 0.0 in /  0 mm
19:57 2.2 °F /  -16.6 °C 0.6 °F /  -17.4 °C 1022.6 in /  34625.2 hPa WNW 4.8 mph /  7.7 km/h 16.1 mph /  25.9 km/h 89 % 0.0 in /  0 mm
20:07 2.1 °F /  -16.6 °C 0.5 °F /  -17.5 °C 1022.9 in /  34635.4 hPa West 3.2 mph /  5.1 km/h 12.9 mph /  20.8 km/h 89 % 0.0 in /  0 mm
20:12 2.1 °F /  -16.6 °C 0.6 °F /  -17.4 °C 1022.9 in /  34635.4 hPa NW 11.3 mph /  18.2 km/h 14.5 mph /  23.3 km/h 90 % 0.0 in /  0 mm
20:17 2.1 °F /  -16.6 °C 0.6 °F /  -17.4 °C 1022.9 in /  34635.4 hPa WNW 4.8 mph /  7.7 km/h 14.5 mph /  23.3 km/h 90 % 0.0 in /  0 mm
20:22 2.1 °F /  -16.6 °C 0.6 °F /  -17.4 °C 1023.2 in /  34645.6 hPa WNW 8.0 mph /  12.9 km/h 14.5 mph /  23.3 km/h 90 % 0.0 in /  0 mm
20:27 2.0 °F /  -16.7 °C 0.5 °F /  -17.5 °C 1023.2 in /  34645.6 hPa WNW 4.8 mph /  7.7 km/h 14.5 mph /  23.3 km/h 90 % 0.0 in /  0 mm
20:32 1.9 °F /  -16.7 °C 0.4 °F /  -17.6 °C 1023.2 in /  34645.6 hPa WNW 6.4 mph /  10.3 km/h 14.5 mph /  23.3 km/h 90 % 0.0 in /  0 mm
20:37 1.8 °F /  -16.8 °C 0.5 °F /  -17.5 °C 1023.2 in /  34645.6 hPa NW 8.0 mph /  12.9 km/h 11.3 mph /  18.2 km/h 91 % 0.0 in /  0 mm
20:47 1.8 °F /  -16.8 °C 0.5 °F /  -17.5 °C 1023.2 in /  34645.6 hPa NW 4.8 mph /  7.7 km/h 12.9 mph /  20.8 km/h 91 % 0.0 in /  0 mm
20:52 1.8 °F /  -16.8 °C 0.5 °F /  -17.5 °C 1023.6 in /  34659.1 hPa WNW 8.0 mph /  12.9 km/h 12.9 mph /  20.8 km/h 91 % 0.0 in /  0 mm
20:57 1.8 °F /  -16.8 °C 0.5 °F /  -17.5 °C 1023.6 in /  34659.1 hPa WNW 8.0 mph /  12.9 km/h 12.9 mph /  20.8 km/h 91 % 0.0 in /  0 mm
21:02 1.8 °F /  -16.8 °C 0.5 °F /  -17.5 °C 1023.9 in /  34669.3 hPa WNW 9.7 mph /  15.6 km/h 12.9 mph /  20.8 km/h 91 % 0.0 in /  0 mm
21:07 1.8 °F /  -16.8 °C 0.5 °F /  -17.5 °C 1023.9 in /  34669.3 hPa West 3.2 mph /  5.1 km/h 14.5 mph /  23.3 km/h 91 % 0.0 in /  0 mm
21:12 1.8 °F /  -16.8 °C 0.3 °F /  -17.6 °C 1023.9 in /  34669.3 hPa NW 6.4 mph /  10.3 km/h 14.5 mph /  23.3 km/h 90 % 0.0 in /  0 mm
21:17 1.8 °F /  -16.8 °C 0.5 °F /  -17.5 °C 1023.9 in /  34669.3 hPa WNW 9.7 mph /  15.6 km/h 12.9 mph /  20.8 km/h 91 % 0.0 in /  0 mm
21:22 1.8 °F /  -16.8 °C 0.5 °F /  -17.5 °C 1024.3 in /  34682.8 hPa West 4.8 mph /  7.7 km/h 12.9 mph /  20.8 km/h 91 % 0.0 in /  0 mm
21:27 1.9 °F /  -16.7 °C 0.6 °F /  -17.4 °C 1024.3 in /  34682.8 hPa WNW 6.4 mph /  10.3 km/h 11.3 mph /  18.2 km/h 91 % 0.0 in /  0 mm
21:32 1.9 °F /  -16.7 °C 0.4 °F /  -17.6 °C 1024.3 in /  34682.8 hPa WNW 6.4 mph /  10.3 km/h 11.3 mph /  18.2 km/h 90 % 0.0 in /  0 mm
21:42 1.8 °F /  -16.8 °C 0.3 °F /  -17.6 °C 1023.9 in /  34669.3 hPa WNW 6.4 mph /  10.3 km/h 11.3 mph /  18.2 km/h 90 % 0.0 in /  0 mm
21:52 1.8 °F /  -16.8 °C 0.5 °F /  -17.5 °C 1024.3 in /  34682.8 hPa WNW 6.4 mph /  10.3 km/h 9.7 mph /  15.6 km/h 91 % 0.0 in /  0 mm
21:57 1.7 °F /  -16.8 °C 0.4 °F /  -17.6 °C 1024.3 in /  34682.8 hPa NW 6.4 mph /  10.3 km/h 8.0 mph /  12.9 km/h 91 % 0.0 in /  0 mm
22:02 1.7 °F /  -16.8 °C 0.4 °F /  -17.6 °C 1023.9 in /  34669.3 hPa West 3.2 mph /  5.1 km/h 8.0 mph /  12.9 km/h 91 % 0.0 in /  0 mm
22:07 1.7 °F /  -16.8 °C 0.4 °F /  -17.6 °C 1024.3 in /  34682.8 hPa WNW 4.8 mph /  7.7 km/h 8.0 mph /  12.9 km/h 91 % 0.0 in /  0 mm
22:12 1.7 °F /  -16.8 °C 0.4 °F /  -17.6 °C 1023.9 in /  34669.3 hPa NW 4.8 mph /  7.7 km/h 8.0 mph /  12.9 km/h 91 % 0.0 in /  0 mm
22:17 1.7 °F /  -16.8 °C 0.4 °F /  -17.6 °C 1023.9 in /  34669.3 hPa WNW 6.4 mph /  10.3 km/h 9.7 mph /  15.6 km/h 91 % 0.0 in /  0 mm
22:22 1.7 °F /  -16.8 °C 0.4 °F /  -17.6 °C 1024.3 in /  34682.8 hPa WNW 8.0 mph /  12.9 km/h 12.9 mph /  20.8 km/h 91 % 0.0 in /  0 mm
22:32 1.6 °F /  -16.9 °C 0.1 °F /  -17.7 °C 1024.3 in /  34682.8 hPa WNW 1.6 mph /  2.6 km/h 12.9 mph /  20.8 km/h 90 % 0.0 in /  0 mm
22:37 1.6 °F /  -16.9 °C 0.3 °F /  -17.6 °C 1024.3 in /  34682.8 hPa WNW 1.6 mph /  2.6 km/h 11.3 mph /  18.2 km/h 91 % 0.0 in /  0 mm
22:42 1.6 °F /  -16.9 °C 0.3 °F /  -17.6 °C 1024.3 in /  34682.8 hPa WNW 4.8 mph /  7.7 km/h 11.3 mph /  18.2 km/h 91 % 0.0 in /  0 mm
22:47 1.6 °F /  -16.9 °C 0.3 °F /  -17.6 °C 1024.3 in /  34682.8 hPa WNW 3.2 mph /  5.1 km/h 11.3 mph /  18.2 km/h 91 % 0.0 in /  0 mm
22:52 1.5 °F /  -16.9 °C 0.2 °F /  -17.7 °C 1024.3 in /  34682.8 hPa NW 1.6 mph /  2.6 km/h 11.3 mph /  18.2 km/h 91 % 0.0 in /  0 mm
22:57 1.5 °F /  -16.9 °C 0.2 °F /  -17.7 °C 1024.3 in /  34682.8 hPa WNW 3.2 mph /  5.1 km/h 8.0 mph /  12.9 km/h 91 % 0.0 in /  0 mm
23:02 1.4 °F /  -17 °C 0.1 °F /  -17.7 °C 1024.3 in /  34682.8 hPa WNW 9.7 mph /  15.6 km/h 9.7 mph /  15.6 km/h 91 % 0.0 in /  0 mm
23:07 1.4 °F /  -17 °C 0.1 °F /  -17.7 °C 1024.3 in /  34682.8 hPa West 4.8 mph /  7.7 km/h 9.7 mph /  15.6 km/h 91 % 0.0 in /  0 mm
23:12 1.5 °F /  -16.9 °C 0.2 °F /  -17.7 °C 1024.3 in /  34682.8 hPa WNW 4.8 mph /  7.7 km/h 9.7 mph /  15.6 km/h 91 % 0.0 in /  0 mm
23:22 1.5 °F /  -16.9 °C 0.2 °F /  -17.7 °C 1024.6 in /  34693 hPa WNW 4.8 mph /  7.7 km/h 9.7 mph /  15.6 km/h 91 % 0.0 in /  0 mm
23:27 1.5 °F /  -16.9 °C 0.2 °F /  -17.7 °C 1024.6 in /  34693 hPa WNW 1.6 mph /  2.6 km/h 9.7 mph /  15.6 km/h 91 % 0.0 in /  0 mm
23:32 1.4 °F /  -17 °C 0.1 °F /  -17.7 °C 1024.9 in /  34703.1 hPa WNW 1.6 mph /  2.6 km/h 9.7 mph /  15.6 km/h 91 % 0.0 in /  0 mm
23:37 1.4 °F /  -17 °C 0.1 °F /  -17.7 °C 1024.9 in /  34703.1 hPa WNW 4.8 mph /  7.7 km/h 9.7 mph /  15.6 km/h 91 % 0.0 in /  0 mm
23:42 1.5 °F /  -16.9 °C 0.2 °F /  -17.7 °C 1024.9 in /  34703.1 hPa West 6.4 mph /  10.3 km/h 12.9 mph /  20.8 km/h 91 % 0.0 in /  0 mm
23:47 1.6 °F /  -16.9 °C 0.3 °F /  -17.6 °C 1024.6 in /  34693 hPa WNW 1.6 mph /  2.6 km/h 12.9 mph /  20.8 km/h 91 % 0.0 in /  0 mm
23:57 1.6 °F /  -16.9 °C 0.3 °F /  -17.6 °C 1024.6 in /  34693 hPa Calm   8.0 mph /  12.9 km/h 91 % 0.0 in /  0 mm
Meteo18
Compliments of Weather Underground - 4 mb

Script developed by  Jim McMurry - jmcmurry@mwt.net Adapted for the template by  Wim van der Kuil - Leuven-Template.eu

You find our weather info also at:

European Weather Network

Weather Underground

Equipment we use:

Weather-station
Davis Vue

Weather-program
Meteobridge

Weather-server
Raspberry PI 2 B+

Provider
1 and 1

Davis Vue

Meteobridge

Raspberry PI 2 B+

1 and 1